PWSweather.com
Personal Weather Stations
Station Observations
KMAMEDFI2
Medfield, MA 02052

Medfield, MA 02052

Lat: 42.1900822, Lon: -71.3296889

Elevation: 138

Station Type: Rainwise WS MK-III

http://www.medfieldweather.com

High Low Average
Temperature 29.1°F-1.6°C 16.3°F-8.7°C 22.3°F-5.4°C
Dew Point 14.2°F-9.9°C -0.8°F-18.2°C 6.0°F-14.4°C
Winds 9.2 mph 14.8 kmh Calm Calm 3.0 mph SW4.8 kmh SW
Wind Gusts 18.4 mph29.6 kmh -- 4.0 mph6.4 kmh
Humidity 69% 29% 51%
Pressure 30.39 in1029.1 mb 30.14 in1020.7 mb -
Precipitation 0.00 in0.0 mm - -
Hour Temp Dew Point Humidity Winds Wind Gusts Pressure Precip Precip Rate Daily Precip Total
12:00 AM 25.0°F-3.9°C 11.9°F-11.2°C 57% 3.5 mph W5.6 kmh W 6.9 mph11.1 kmh 30.11 in1019.6 mb - 0.00 in0.0 mm 0.00 in0.0 mm
12:10 AM 24.9°F-3.9°C 12.2°F-11.0°C 58% 5.8 mph WSW9.3 kmh WSW 11.5 mph18.5 kmh 30.11 in1019.6 mb - 0.00 in0.0 mm 0.00 in0.0 mm
12:20 AM 24.9°F-3.9°C 11.8°F-11.2°C 57% 6.9 mph WNW11.1 kmh WNW 9.2 mph14.8 kmh 30.11 in1019.6 mb - 0.00 in0.0 mm 0.00 in0.0 mm
12:30 AM 24.7°F-4.1°C 11.7°F-11.3°C 57% 3.5 mph WNW5.6 kmh WNW 8.1 mph13.0 kmh 30.12 in1020.0 mb - 0.00 in0.0 mm 0.00 in0.0 mm
12:40 AM 24.4°F-4.2°C 11.4°F-11.4°C 57% 3.5 mph SW5.6 kmh SW 8.1 mph13.0 kmh 30.12 in1020.0 mb - 0.00 in0.0 mm 0.00 in0.0 mm
12:50 AM 23.9°F-4.5°C 11.7°F-11.3°C 59% 3.5 mph WSW5.6 kmh WSW 9.2 mph14.8 kmh 30.13 in1020.3 mb - 0.00 in0.0 mm 0.00 in0.0 mm
01:00 AM 23.7°F-4.6°C 11.5°F-11.4°C 59% 3.5 mph WNW5.6 kmh WNW 3.5 mph5.6 kmh 30.14 in1020.7 mb - 0.00 in0.0 mm 0.00 in0.0 mm
01:10 AM 23.4°F-4.8°C 10.8°F-11.8°C 58% 5.8 mph SW9.3 kmh SW 5.8 mph9.3 kmh 30.14 in1020.7 mb - 0.00 in0.0 mm 0.00 in0.0 mm
01:20 AM 22.9°F-5.1°C 9.9°F-12.3°C 57% 4.6 mph WSW7.4 kmh WSW 9.2 mph14.8 kmh 30.15 in1021.0 mb - 0.00 in0.0 mm 0.00 in0.0 mm
01:30 AM 22.5°F-5.3°C 10.0°F-12.2°C 58% 4.6 mph NE7.4 kmh NE 8.1 mph13.0 kmh 30.15 in1021.0 mb - 0.00 in0.0 mm 0.00 in0.0 mm
01:40 AM 22.2°F-5.4°C 9.2°F-12.7°C 57% 5.8 mph WSW9.3 kmh WSW 9.2 mph14.8 kmh 30.16 in1021.3 mb - 0.00 in0.0 mm 0.00 in0.0 mm
02:00 AM 21.8°F-5.7°C 9.6°F-12.4°C 59% 5.8 mph WNW9.3 kmh WNW 8.1 mph13.0 kmh 30.16 in1021.3 mb - 0.00 in0.0 mm 0.00 in0.0 mm
02:10 AM 21.6°F-5.8°C 9.4°F-12.6°C 59% 4.6 mph S7.4 kmh S 5.8 mph9.3 kmh 30.17 in1021.7 mb - 0.00 in0.0 mm 0.00 in0.0 mm
02:20 AM 21.3°F-5.9°C 9.5°F-12.5°C 60% 8.1 mph NNW13.0 kmh NNW 15.0 mph24.1 kmh 30.18 in1022.0 mb - 0.00 in0.0 mm 0.00 in0.0 mm
02:30 AM 21.1°F-6.1°C 9.4°F-12.6°C 60% 3.5 mph WSW5.6 kmh WSW 8.1 mph13.0 kmh 30.19 in1022.4 mb - 0.00 in0.0 mm 0.00 in0.0 mm
02:40 AM 20.9°F-6.2°C 9.6°F-12.4°C 61% 3.5 mph WSW5.6 kmh WSW 5.8 mph9.3 kmh 30.19 in1022.4 mb - 0.00 in0.0 mm 0.00 in0.0 mm
02:50 AM 20.8°F-6.2°C 10.2°F-12.1°C 63% 4.6 mph WSW7.4 kmh WSW 5.8 mph9.3 kmh 30.20 in1022.7 mb - 0.00 in0.0 mm 0.00 in0.0 mm
03:00 AM 20.5°F-6.4°C 9.9°F-12.3°C 63% 4.6 mph WSW7.4 kmh WSW 3.5 mph5.6 kmh 30.21 in1023.0 mb - 0.00 in0.0 mm 0.00 in0.0 mm
03:10 AM 20.2°F-6.6°C 9.6°F-12.4°C 63% 3.5 mph W5.6 kmh W 5.8 mph9.3 kmh 30.21 in1023.0 mb - 0.00 in0.0 mm 0.00 in0.0 mm
03:20 AM 20.0°F-6.7°C 9.7°F-12.4°C 64% 6.9 mph W11.1 kmh W 18.4 mph29.6 kmh 30.22 in1023.4 mb - 0.00 in0.0 mm 0.00 in0.0 mm
03:30 AM 19.8°F-6.8°C 9.3°F-12.6°C 63% 3.5 mph WSW5.6 kmh WSW 5.8 mph9.3 kmh 30.22 in1023.4 mb - 0.00 in0.0 mm 0.00 in0.0 mm
03:40 AM 19.7°F-6.8°C 8.8°F-12.9°C 62% 4.6 mph WSW7.4 kmh WSW 9.2 mph14.8 kmh 30.22 in1023.4 mb - 0.00 in0.0 mm 0.00 in0.0 mm
03:50 AM 19.6°F-6.9°C 9.1°F-12.7°C 63% 5.8 mph WSW9.3 kmh WSW 8.1 mph13.0 kmh 30.23 in1023.7 mb - 0.00 in0.0 mm 0.00 in0.0 mm
04:00 AM 19.5°F-6.9°C 9.0°F-12.8°C 63% 5.8 mph W9.3 kmh W 8.1 mph13.0 kmh 30.24 in1024.0 mb - 0.00 in0.0 mm 0.00 in0.0 mm
04:10 AM 19.4°F-7.0°C 8.8°F-12.9°C 63% 1.2 mph SSW1.9 kmh SSW 3.5 mph5.6 kmh 30.24 in1024.0 mb - 0.00 in0.0 mm 0.00 in0.0 mm
04:20 AM 19.1°F-7.2°C 8.6°F-13.0°C 63% 9.2 mph WSW14.8 kmh WSW 9.2 mph14.8 kmh 30.25 in1024.4 mb - 0.00 in0.0 mm 0.00 in0.0 mm
04:30 AM 19.0°F-7.2°C 8.5°F-13.1°C 63% 3.5 mph WNW5.6 kmh WNW 2.3 mph3.7 kmh 30.25 in1024.4 mb - 0.00 in0.0 mm 0.00 in0.0 mm
04:40 AM 18.8°F-7.3°C 8.3°F-13.2°C 63% 4.6 mph NW7.4 kmh NW 5.8 mph9.3 kmh 30.25 in1024.4 mb - 0.00 in0.0 mm 0.00 in0.0 mm
04:50 AM 18.6°F-7.4°C 8.5°F-13.1°C 64% 3.5 mph NW5.6 kmh NW 3.5 mph5.6 kmh 30.25 in1024.4 mb - 0.00 in0.0 mm 0.00 in0.0 mm
05:00 AM 18.4°F-7.6°C 8.2°F-13.2°C 64% 3.5 mph W5.6 kmh W 6.9 mph11.1 kmh 30.25 in1024.4 mb - 0.00 in0.0 mm 0.00 in0.0 mm
05:10 AM 18.1°F-7.7°C 8.0°F-13.3°C 64% 3.5 mph WSW5.6 kmh WSW 8.1 mph13.0 kmh 30.25 in1024.4 mb - 0.00 in0.0 mm 0.00 in0.0 mm
05:20 AM 18.0°F-7.8°C 7.5°F-13.6°C 63% 3.5 mph WSW5.6 kmh WSW 6.9 mph11.1 kmh 30.25 in1024.4 mb - 0.00 in0.0 mm 0.00 in0.0 mm
05:30 AM 17.8°F-7.9°C 7.0°F-13.9°C 62% 5.8 mph NNW9.3 kmh NNW 9.2 mph14.8 kmh 30.26 in1024.7 mb - 0.00 in0.0 mm 0.00 in0.0 mm
05:40 AM 17.6°F-8.0°C 6.8°F-14.0°C 62% 3.5 mph W5.6 kmh W 2.3 mph3.7 kmh 30.27 in1025.1 mb - 0.00 in0.0 mm 0.00 in0.0 mm
05:50 AM 17.6°F-8.0°C 6.8°F-14.0°C 62% 3.5 mph W5.6 kmh W 8.1 mph13.0 kmh 30.26 in1024.7 mb - 0.00 in0.0 mm 0.00 in0.0 mm
06:00 AM 17.3°F-8.2°C 5.8°F-14.6°C 60% 8.1 mph NW13.0 kmh NW 10.4 mph16.7 kmh 30.27 in1025.1 mb - 0.00 in0.0 mm 0.00 in0.0 mm
06:10 AM 17.2°F-8.2°C 6.1°F-14.4°C 61% 3.5 mph W5.6 kmh W 5.8 mph9.3 kmh 30.26 in1024.7 mb - 0.00 in0.0 mm 0.00 in0.0 mm
06:20 AM 17.1°F-8.3°C 6.3°F-14.3°C 62% 3.5 mph W5.6 kmh W 5.8 mph9.3 kmh 30.26 in1024.7 mb - 0.00 in0.0 mm 0.00 in0.0 mm
06:30 AM 16.9°F-8.4°C 6.1°F-14.4°C 62% 4.6 mph WNW7.4 kmh WNW 5.8 mph9.3 kmh 30.27 in1025.1 mb - 0.00 in0.0 mm 0.00 in0.0 mm
06:40 AM 16.9°F-8.4°C 5.4°F-14.8°C 60% 3.5 mph NW5.6 kmh NW 10.4 mph16.7 kmh 30.27 in1025.1 mb - 0.00 in0.0 mm 0.00 in0.0 mm
06:50 AM 16.9°F-8.4°C 5.0°F-15.0°C 59% 3.5 mph NNW5.6 kmh NNW 5.8 mph9.3 kmh 30.27 in1025.1 mb - 0.00 in0.0 mm 0.00 in0.0 mm
07:00 AM 16.7°F-8.5°C 4.8°F-15.1°C 59% 4.6 mph NW7.4 kmh NW 8.1 mph13.0 kmh 30.28 in1025.4 mb - 0.00 in0.0 mm 0.00 in0.0 mm
07:10 AM 16.7°F-8.5°C 4.4°F-15.3°C 58% 2.3 mph S3.7 kmh S 2.3 mph3.7 kmh 30.29 in1025.7 mb - 0.00 in0.0 mm 0.00 in0.0 mm
07:20 AM 16.7°F-8.5°C 3.7°F-15.7°C 56% 5.8 mph W9.3 kmh W 9.2 mph14.8 kmh 30.29 in1025.7 mb - 0.00 in0.0 mm 0.00 in0.0 mm
07:30 AM 16.7°F-8.5°C 2.9°F-16.2°C 54% 3.5 mph WSW5.6 kmh WSW 8.1 mph13.0 kmh 30.29 in1025.7 mb - 0.00 in0.0 mm 0.00 in0.0 mm
07:40 AM 16.7°F-8.5°C 2.1°F-16.6°C 52% 5.8 mph NW9.3 kmh NW 8.1 mph13.0 kmh 30.29 in1025.7 mb - 0.00 in0.0 mm 0.00 in0.0 mm
07:50 AM 16.7°F-8.5°C 1.6°F-16.9°C 51% 5.8 mph WSW9.3 kmh WSW 16.1 mph25.9 kmh 30.29 in1025.7 mb - 0.00 in0.0 mm 0.00 in0.0 mm
08:00 AM 16.7°F-8.5°C 1.2°F-17.1°C 50% 4.6 mph WNW7.4 kmh WNW 9.2 mph14.8 kmh 30.31 in1026.4 mb - 0.00 in0.0 mm 0.00 in0.0 mm
08:10 AM 16.6°F-8.6°C 1.1°F-17.2°C 50% 4.6 mph SE7.4 kmh SE 5.8 mph9.3 kmh 30.33 in1027.1 mb - 0.00 in0.0 mm 0.00 in0.0 mm
08:20 AM 16.5°F-8.6°C 1.9°F-16.7°C 52% 3.5 mph N5.6 kmh N 5.8 mph9.3 kmh 30.33 in1027.1 mb - 0.00 in0.0 mm 0.00 in0.0 mm
08:30 AM 16.3°F-8.7°C 2.1°F-16.6°C 53% 2.3 mph W3.7 kmh W 2.3 mph3.7 kmh 30.34 in1027.4 mb - 0.00 in0.0 mm 0.00 in0.0 mm
08:40 AM 16.3°F-8.7°C 2.1°F-16.6°C 53% 5.8 mph NNW9.3 kmh NNW 5.8 mph9.3 kmh 30.34 in1027.4 mb - 0.00 in0.0 mm 0.00 in0.0 mm
08:50 AM 16.3°F-8.7°C 2.5°F-16.4°C 54% 3.5 mph WSW5.6 kmh WSW 2.3 mph3.7 kmh 30.35 in1027.8 mb - 0.00 in0.0 mm 0.00 in0.0 mm
09:00 AM 16.3°F-8.7°C 2.6°F-16.3°C 54% 4.6 mph W7.4 kmh W 3.5 mph5.6 kmh 30.36 in1028.1 mb - 0.00 in0.0 mm 0.00 in0.0 mm
09:10 AM 16.5°F-8.6°C 2.7°F-16.3°C 54% 2.3 mph WSW3.7 kmh WSW 16.1 mph25.9 kmh 30.36 in1028.1 mb - 0.00 in0.0 mm 0.00 in0.0 mm
09:20 AM 16.9°F-8.4°C 1.9°F-16.7°C 51% 2.3 mph W3.7 kmh W 2.3 mph3.7 kmh 30.35 in1027.8 mb - 0.00 in0.0 mm 0.00 in0.0 mm
09:30 AM 17.2°F-8.2°C 1.7°F-16.8°C 50% 2.3 mph WSW3.7 kmh WSW 5.8 mph9.3 kmh 30.36 in1028.1 mb - 0.00 in0.0 mm 0.00 in0.0 mm
09:40 AM 17.8°F-7.9°C 1.8°F-16.8°C 49% 3.5 mph N5.6 kmh N 5.8 mph9.3 kmh 30.37 in1028.4 mb - 0.00 in0.0 mm 0.00 in0.0 mm
09:50 AM 18.4°F-7.6°C 1.5°F-16.9°C 47% 4.6 mph W7.4 kmh W 6.9 mph11.1 kmh 30.37 in1028.4 mb - 0.00 in0.0 mm 0.00 in0.0 mm
10:00 AM 18.9°F-7.3°C 1.5°F-16.9°C 46% 6.9 mph W11.1 kmh W 11.5 mph18.5 kmh 30.37 in1028.4 mb - 0.00 in0.0 mm 0.00 in0.0 mm
10:10 AM 19.1°F-7.2°C 0.7°F-17.4°C 44% 2.3 mph SSW3.7 kmh SSW 2.3 mph3.7 kmh 30.38 in1028.8 mb - 0.00 in0.0 mm 0.00 in0.0 mm
10:20 AM 19.6°F-6.9°C 0.2°F-17.7°C 42% 8.1 mph NW13.0 kmh NW 11.5 mph18.5 kmh 30.39 in1029.1 mb - 0.00 in0.0 mm 0.00 in0.0 mm
10:30 AM 19.8°F-6.8°C 0.3°F-17.6°C 42% 4.6 mph WSW7.4 kmh WSW 2.3 mph3.7 kmh 30.39 in1029.1 mb - 0.00 in0.0 mm 0.00 in0.0 mm
10:40 AM 20.0°F-6.7°C 0.5°F-17.5°C 42% 4.6 mph WSW7.4 kmh WSW 8.1 mph13.0 kmh 30.39 in1029.1 mb - 0.00 in0.0 mm 0.00 in0.0 mm
10:50 AM 20.4°F-6.4°C 0.4°F-17.6°C 41% 8.1 mph NW13.0 kmh NW 6.9 mph11.1 kmh 30.39 in1029.1 mb - 0.00 in0.0 mm 0.00 in0.0 mm
11:00 AM 20.9°F-6.2°C 0.3°F-17.6°C 40% 4.6 mph W7.4 kmh W 10.4 mph16.7 kmh 30.39 in1029.1 mb - 0.00 in0.0 mm 0.00 in0.0 mm
11:10 AM 21.2°F-6.0°C 0.0°F-17.8°C 39% 5.8 mph WNW9.3 kmh WNW 9.2 mph14.8 kmh 30.39 in1029.1 mb - 0.00 in0.0 mm 0.00 in0.0 mm
11:20 AM 21.5°F-5.8°C 0.3°F-17.6°C 39% 4.6 mph N7.4 kmh N 5.8 mph9.3 kmh 30.39 in1029.1 mb - 0.00 in0.0 mm 0.00 in0.0 mm
11:30 AM 22.6°F-5.2°C 0.2°F-17.7°C 37% 4.6 mph NW7.4 kmh NW 11.5 mph18.5 kmh 30.38 in1028.8 mb - 0.00 in0.0 mm 0.00 in0.0 mm
11:40 AM 23.7°F-4.6°C 0.6°F-17.4°C 36% 3.5 mph SE5.6 kmh SE 2.3 mph3.7 kmh 30.38 in1028.8 mb - 0.00 in0.0 mm 0.00 in0.0 mm
11:50 AM 24.6°F-4.1°C 0.8°F-17.3°C 35% 5.8 mph W9.3 kmh W 8.1 mph13.0 kmh 30.39 in1029.1 mb - 0.00 in0.0 mm 0.00 in0.0 mm
12:00 PM 25.3°F-3.7°C 2.6°F-16.3°C 37% 4.6 mph NNW7.4 kmh NNW 10.4 mph16.7 kmh 30.39 in1029.1 mb - 0.00 in0.0 mm 0.00 in0.0 mm
12:10 PM 25.2°F-3.8°C 1.3°F-17.1°C 35% 5.8 mph WSW9.3 kmh WSW 8.1 mph13.0 kmh 30.38 in1028.8 mb - 0.00 in0.0 mm 0.00 in0.0 mm
12:20 PM 25.9°F-3.4°C 2.0°F-16.7°C 35% 4.6 mph NNE7.4 kmh NNE 8.1 mph13.0 kmh 30.38 in1028.8 mb - 0.00 in0.0 mm 0.00 in0.0 mm
12:30 PM 26.4°F-3.1°C 2.4°F-16.4°C 35% 4.6 mph WSW7.4 kmh WSW 9.2 mph14.8 kmh 30.38 in1028.8 mb - 0.00 in0.0 mm 0.00 in0.0 mm
12:40 PM 26.3°F-3.2°C 2.3°F-16.5°C 35% 4.6 mph NNW7.4 kmh NNW 8.1 mph13.0 kmh 30.36 in1028.1 mb - 0.00 in0.0 mm 0.00 in0.0 mm
12:50 PM 27.1°F-2.7°C 2.4°F-16.4°C 34% 4.6 mph NNW7.4 kmh NNW 5.8 mph9.3 kmh 30.35 in1027.8 mb - 0.00 in0.0 mm 0.00 in0.0 mm
01:00 PM 27.2°F-2.7°C 1.8°F-16.8°C 33% 3.5 mph E5.6 kmh E 5.8 mph9.3 kmh 30.35 in1027.8 mb - 0.00 in0.0 mm 0.00 in0.0 mm
01:10 PM 27.4°F-2.6°C 0.7°F-17.4°C 31% 4.6 mph N7.4 kmh N 6.9 mph11.1 kmh 30.35 in1027.8 mb - 0.00 in0.0 mm 0.00 in0.0 mm
01:20 PM 27.9°F-2.3°C 2.5°F-16.4°C 33% 2.3 mph NW3.7 kmh NW 2.3 mph3.7 kmh 30.35 in1027.8 mb - 0.00 in0.0 mm 0.00 in0.0 mm
01:30 PM 28.5°F-1.9°C 1.6°F-16.9°C 31% 2.3 mph WSW3.7 kmh WSW 10.4 mph16.7 kmh 30.35 in1027.8 mb - 0.00 in0.0 mm 0.00 in0.0 mm
01:40 PM 28.2°F-2.1°C 1.4°F-17.0°C 31% 3.5 mph W5.6 kmh W 3.5 mph5.6 kmh 30.35 in1027.8 mb - 0.00 in0.0 mm 0.00 in0.0 mm
01:50 PM 28.6°F-1.9°C 1.0°F-17.2°C 30% 4.6 mph NNW7.4 kmh NNW 5.8 mph9.3 kmh 30.35 in1027.8 mb - 0.00 in0.0 mm 0.00 in0.0 mm
02:00 PM 28.8°F-1.8°C 0.5°F-17.5°C 29% 4.6 mph NW7.4 kmh NW 3.5 mph5.6 kmh 30.35 in1027.8 mb - 0.00 in0.0 mm 0.00 in0.0 mm
02:10 PM 29.1°F-1.6°C 1.5°F-16.9°C 30% 3.5 mph WNW5.6 kmh WNW 10.4 mph16.7 kmh 30.35 in1027.8 mb - 0.00 in0.0 mm 0.00 in0.0 mm
02:20 PM 29.0°F-1.7°C 2.1°F-16.6°C 31% 1.2 mph WSW1.9 kmh WSW 2.3 mph3.7 kmh 30.34 in1027.4 mb - 0.00 in0.0 mm 0.00 in0.0 mm
02:30 PM 28.9°F-1.7°C 1.3°F-17.1°C 30% 3.5 mph WSW5.6 kmh WSW 2.3 mph3.7 kmh 30.35 in1027.8 mb - 0.00 in0.0 mm 0.00 in0.0 mm
02:40 PM 28.7°F-1.8°C 1.8°F-16.8°C 31% 3.5 mph W5.6 kmh W 8.1 mph13.0 kmh 30.35 in1027.8 mb - 0.00 in0.0 mm 0.00 in0.0 mm
02:50 PM 28.7°F-1.8°C 1.1°F-17.2°C 30% 3.5 mph N5.6 kmh N 5.8 mph9.3 kmh 30.35 in1027.8 mb - 0.00 in0.0 mm 0.00 in0.0 mm
03:00 PM 28.7°F-1.8°C 1.1°F-17.2°C 30% 3.5 mph WSW5.6 kmh WSW 5.8 mph9.3 kmh 30.36 in1028.1 mb - 0.00 in0.0 mm 0.00 in0.0 mm
03:10 PM 28.8°F-1.8°C 0.5°F-17.5°C 29% 4.6 mph WSW7.4 kmh WSW 9.2 mph14.8 kmh 30.35 in1027.8 mb - 0.00 in0.0 mm 0.00 in0.0 mm
03:20 PM 28.3°F-2.1°C 0.8°F-17.3°C 30% 3.5 mph WSW5.6 kmh WSW 2.3 mph3.7 kmh 30.35 in1027.8 mb - 0.00 in0.0 mm 0.00 in0.0 mm
03:30 PM 27.9°F-2.3°C 1.8°F-16.8°C 32% 3.5 mph WSW5.6 kmh WSW 5.8 mph9.3 kmh 30.35 in1027.8 mb - 0.00 in0.0 mm 0.00 in0.0 mm
03:40 PM 27.8°F-2.3°C 1.0°F-17.2°C 31% 1.2 mph WNW1.9 kmh WNW 2.3 mph3.7 kmh 30.35 in1027.8 mb - 0.00 in0.0 mm 0.00 in0.0 mm
03:50 PM 27.8°F-2.3°C 1.7°F-16.8°C 32% 1.2 mph WSW1.9 kmh WSW 3.5 mph5.6 kmh 30.36 in1028.1 mb - 0.00 in0.0 mm 0.00 in0.0 mm
04:00 PM 27.4°F-2.6°C 0.7°F-17.4°C 31% 2.3 mph W3.7 kmh W 2.3 mph3.7 kmh 30.35 in1027.8 mb - 0.00 in0.0 mm 0.00 in0.0 mm
04:10 PM 27.4°F-2.6°C -0.8°F-18.2°C 29% 3.5 mph WNW5.6 kmh WNW 2.3 mph3.7 kmh 30.37 in1028.4 mb - 0.00 in0.0 mm 0.00 in0.0 mm
04:20 PM 27.5°F-2.5°C 0.0°F-17.8°C 30% 4.6 mph W7.4 kmh W 5.8 mph9.3 kmh 30.37 in1028.4 mb - 0.00 in0.0 mm 0.00 in0.0 mm
04:30 PM 27.5°F-2.5°C 0.7°F-17.4°C 31% Calm Calm -- 30.37 in1028.4 mb - 0.00 in0.0 mm 0.00 in0.0 mm
04:40 PM 27.5°F-2.5°C 0.7°F-17.4°C 31% Calm Calm 2.3 mph3.7 kmh 30.36 in1028.1 mb - 0.00 in0.0 mm 0.00 in0.0 mm
04:50 PM 27.4°F-2.6°C 2.0°F-16.7°C 33% 2.3 mph SW3.7 kmh SW 2.3 mph3.7 kmh 30.37 in1028.4 mb - 0.00 in0.0 mm 0.00 in0.0 mm
05:00 PM 27.2°F-2.7°C 2.5°F-16.4°C 34% 2.3 mph WSW3.7 kmh WSW 2.3 mph3.7 kmh 30.37 in1028.4 mb - 0.00 in0.0 mm 0.00 in0.0 mm
05:10 PM 27.0°F-2.8°C 4.1°F-15.5°C 37% 1.2 mph WSW1.9 kmh WSW 1.2 mph1.9 kmh 30.36 in1028.1 mb - 0.00 in0.0 mm 0.00 in0.0 mm
05:20 PM 26.8°F-2.9°C 3.9°F-15.6°C 37% 1.2 mph W1.9 kmh W 2.3 mph3.7 kmh 30.35 in1027.8 mb - 0.00 in0.0 mm 0.00 in0.0 mm
05:30 PM 26.5°F-3.1°C 3.7°F-15.7°C 37% Calm Calm -- 30.35 in1027.8 mb - 0.00 in0.0 mm 0.00 in0.0 mm
05:40 PM 26.1°F-3.3°C 3.9°F-15.6°C 38% Calm Calm -- 30.36 in1028.1 mb - 0.00 in0.0 mm 0.00 in0.0 mm
05:50 PM 25.9°F-3.4°C 4.3°F-15.4°C 39% Calm Calm -- 30.35 in1027.8 mb - 0.00 in0.0 mm 0.00 in0.0 mm
06:00 PM 25.7°F-3.5°C 5.2°F-14.9°C 41% Calm Calm -- 30.36 in1028.1 mb - 0.00 in0.0 mm 0.00 in0.0 mm
06:10 PM 25.5°F-3.6°C 5.0°F-15.0°C 41% Calm Calm -- 30.36 in1028.1 mb - 0.00 in0.0 mm 0.00 in0.0 mm
06:20 PM 25.3°F-3.7°C 5.9°F-14.5°C 43% Calm Calm -- 30.36 in1028.1 mb - 0.00 in0.0 mm 0.00 in0.0 mm
06:30 PM 24.9°F-3.9°C 5.0°F-15.0°C 42% Calm Calm -- 30.36 in1028.1 mb - 0.00 in0.0 mm 0.00 in0.0 mm
06:40 PM 24.1°F-4.4°C 6.7°F-14.1°C 47% Calm Calm -- 30.36 in1028.1 mb - 0.00 in0.0 mm 0.00 in0.0 mm
06:50 PM 23.3°F-4.8°C 6.5°F-14.2°C 48% Calm Calm -- 30.36 in1028.1 mb - 0.00 in0.0 mm 0.00 in0.0 mm
07:00 PM 22.9°F-5.1°C 6.1°F-14.4°C 48% Calm Calm -- 30.36 in1028.1 mb - 0.00 in0.0 mm 0.00 in0.0 mm
07:10 PM 22.5°F-5.3°C 6.2°F-14.3°C 49% Calm Calm -- 30.36 in1028.1 mb - 0.00 in0.0 mm 0.00 in0.0 mm
07:20 PM 22.2°F-5.4°C 7.2°F-13.8°C 52% Calm Calm -- 30.36 in1028.1 mb - 0.00 in0.0 mm 0.00 in0.0 mm
07:30 PM 21.7°F-5.7°C 6.7°F-14.1°C 52% Calm Calm -- 30.36 in1028.1 mb - 0.00 in0.0 mm 0.00 in0.0 mm
07:40 PM 21.2°F-6.0°C 7.6°F-13.6°C 55% Calm Calm -- 30.37 in1028.4 mb - 0.00 in0.0 mm 0.00 in0.0 mm
07:50 PM 21.0°F-6.1°C 7.4°F-13.7°C 55% Calm Calm -- 30.37 in1028.4 mb - 0.00 in0.0 mm 0.00 in0.0 mm
08:00 PM 21.2°F-6.0°C 10.6°F-11.9°C 63% 2.3 mph E3.7 kmh E 2.3 mph3.7 kmh 30.35 in1027.8 mb - 0.00 in0.0 mm 0.00 in0.0 mm
08:10 PM 21.6°F-5.8°C 10.6°F-11.9°C 62% Calm Calm -- 30.33 in1027.1 mb - 0.00 in0.0 mm 0.00 in0.0 mm
08:20 PM 21.5°F-5.8°C 10.5°F-11.9°C 62% Calm Calm -- 30.33 in1027.1 mb - 0.00 in0.0 mm 0.00 in0.0 mm
08:30 PM 20.9°F-6.2°C 10.3°F-12.1°C 63% Calm Calm -- 30.34 in1027.4 mb - 0.00 in0.0 mm 0.00 in0.0 mm
08:40 PM 20.6°F-6.3°C 9.7°F-12.4°C 62% Calm Calm -- 30.33 in1027.1 mb - 0.00 in0.0 mm 0.00 in0.0 mm
08:50 PM 20.7°F-6.3°C 10.5°F-11.9°C 64% Calm Calm -- 30.33 in1027.1 mb - 0.00 in0.0 mm 0.00 in0.0 mm
09:00 PM 20.4°F-6.4°C 10.1°F-12.2°C 64% Calm Calm -- 30.33 in1027.1 mb - 0.00 in0.0 mm 0.00 in0.0 mm
09:10 PM 20.5°F-6.4°C 11.6°F-11.3°C 68% Calm Calm -- 30.34 in1027.4 mb - 0.00 in0.0 mm 0.00 in0.0 mm
09:20 PM 20.7°F-6.3°C 11.1°F-11.6°C 66% Calm Calm -- 30.34 in1027.4 mb - 0.00 in0.0 mm 0.00 in0.0 mm
09:30 PM 21.0°F-6.1°C 10.7°F-11.8°C 64% Calm Calm -- 30.35 in1027.8 mb - 0.00 in0.0 mm 0.00 in0.0 mm
09:40 PM 21.5°F-5.8°C 10.5°F-11.9°C 62% Calm Calm -- 30.34 in1027.4 mb - 0.00 in0.0 mm 0.00 in0.0 mm
09:50 PM 21.9°F-5.6°C 12.2°F-11.0°C 66% Calm Calm -- 30.34 in1027.4 mb - 0.00 in0.0 mm 0.00 in0.0 mm
10:00 PM 22.2°F-5.4°C 13.3°F-10.4°C 68% Calm Calm -- 30.34 in1027.4 mb - 0.00 in0.0 mm 0.00 in0.0 mm
10:10 PM 22.3°F-5.4°C 12.3°F-10.9°C 65% Calm Calm -- 30.34 in1027.4 mb - 0.00 in0.0 mm 0.00 in0.0 mm
10:20 PM 22.6°F-5.2°C 13.6°F-10.2°C 68% 1.2 mph E1.9 kmh E 2.3 mph3.7 kmh 30.32 in1026.8 mb - 0.00 in0.0 mm 0.00 in0.0 mm
10:30 PM 22.7°F-5.2°C 13.7°F-10.2°C 68% 2.3 mph E3.7 kmh E 2.3 mph3.7 kmh 30.31 in1026.4 mb - 0.00 in0.0 mm 0.00 in0.0 mm
10:40 PM 22.9°F-5.1°C 14.2°F-9.9°C 69% Calm Calm -- 30.30 in1026.1 mb - 0.00 in0.0 mm 0.00 in0.0 mm
10:50 PM 23.0°F-5.0°C 13.3°F-10.4°C 66% Calm Calm -- 30.30 in1026.1 mb - 0.00 in0.0 mm 0.00 in0.0 mm
11:00 PM 23.0°F-5.0°C 13.3°F-10.4°C 66% Calm Calm -- 30.29 in1025.7 mb - 0.00 in0.0 mm 0.00 in0.0 mm
11:10 PM 23.2°F-4.9°C 14.2°F-9.9°C 68% 2.3 mph E3.7 kmh E 2.3 mph3.7 kmh 30.29 in1025.7 mb - 0.00 in0.0 mm 0.00 in0.0 mm
11:20 PM 23.4°F-4.8°C 14.1°F-9.9°C 67% Calm Calm -- 30.29 in1025.7 mb - 0.00 in0.0 mm 0.00 in0.0 mm
11:30 PM 23.6°F-4.7°C 12.8°F-10.7°C 63% Calm Calm -- 30.29 in1025.7 mb - 0.00 in0.0 mm 0.00 in0.0 mm
11:40 PM 23.7°F-4.6°C 13.3°F-10.4°C 64% Calm Calm -- 30.29 in1025.7 mb - 0.00 in0.0 mm 0.00 in0.0 mm
11:50 PM 23.9°F-4.5°C 13.1°F-10.5°C 63% Calm Calm -- 30.30 in1026.1 mb - 0.00 in0.0 mm 0.00 in0.0 mm